sensor_id;sensor_type;location;lat;lon;timestamp;pressure;altitude;pressure_sealevel;temperature;humidity
46942;BME280;32676;52.630;4.896;2024-03-06T00:00:36;100468.81;;;7.67;85.11
46942;BME280;32676;52.630;4.896;2024-03-06T00:03:03;100464.66;;;7.60;85.08
46942;BME280;32676;52.630;4.896;2024-03-06T00:05:30;100473.19;;;7.66;85.04
46942;BME280;32676;52.630;4.896;2024-03-06T00:07:57;100428.53;;;7.41;84.93
46942;BME280;32676;52.630;4.896;2024-03-06T00:10:24;100470.59;;;7.66;84.90
46942;BME280;32676;52.630;4.896;2024-03-06T00:12:51;100427.00;;;7.33;84.88
46942;BME280;32676;52.630;4.896;2024-03-06T00:15:18;100421.72;;;7.36;84.94
46942;BME280;32676;52.630;4.896;2024-03-06T00:17:44;100377.97;;;7.09;84.83
46942;BME280;32676;52.630;4.896;2024-03-06T00:20:12;100390.94;;;7.11;84.76
46942;BME280;32676;52.630;4.896;2024-03-06T00:22:39;100428.56;;;7.40;85.04
46942;BME280;32676;52.630;4.896;2024-03-06T00:25:07;100413.97;;;7.31;85.02
46942;BME280;32676;52.630;4.896;2024-03-06T00:27:35;100365.06;;;7.02;84.93
46942;BME280;32676;52.630;4.896;2024-03-06T00:30:02;100437.94;;;7.48;84.90
46942;BME280;32676;52.630;4.896;2024-03-06T00:32:28;100402.84;;;7.24;84.98
46942;BME280;32676;52.630;4.896;2024-03-06T00:34:55;100480.13;;;7.67;84.93
46942;BME280;32676;52.630;4.896;2024-03-06T00:37:22;100455.22;;;7.54;84.86
46942;BME280;32676;52.630;4.896;2024-03-06T00:39:48;100469.91;;;7.58;84.84
46942;BME280;32676;52.630;4.896;2024-03-06T00:42:15;100388.31;;;7.13;84.67
46942;BME280;32676;52.630;4.896;2024-03-06T00:44:43;100366.72;;;7.06;84.75
46942;BME280;32676;52.630;4.896;2024-03-06T00:47:09;100437.91;;;7.50;84.75
46942;BME280;32676;52.630;4.896;2024-03-06T00:49:35;100435.09;;;7.56;85.05
46942;BME280;32676;52.630;4.896;2024-03-06T00:52:03;100436.03;;;7.55;84.62
46942;BME280;32676;52.630;4.896;2024-03-06T00:54:29;100433.41;;;7.55;84.56
46942;BME280;32676;52.630;4.896;2024-03-06T00:56:56;100409.44;;;7.38;84.72
46942;BME280;32676;52.630;4.896;2024-03-06T00:59:23;100429.97;;;7.53;84.67
46942;BME280;32676;52.630;4.896;2024-03-06T01:01:51;100370.00;;;7.14;84.68
46942;BME280;32676;52.630;4.896;2024-03-06T01:04:21;100423.19;;;7.46;84.92
46942;BME280;32676;52.630;4.896;2024-03-06T01:06:47;100390.59;;;7.26;85.09
46942;BME280;32676;52.630;4.896;2024-03-06T01:09:15;100372.56;;;7.16;84.92
46942;BME280;32676;52.630;4.896;2024-03-06T01:11:41;100440.34;;;7.56;85.01
46942;BME280;32676;52.630;4.896;2024-03-06T01:14:08;100375.16;;;7.17;84.97
46942;BME280;32676;52.630;4.896;2024-03-06T01:16:35;100311.91;;;6.70;85.02
46942;BME280;32676;52.630;4.896;2024-03-06T01:19:03;100420.66;;;7.43;85.12
46942;BME280;32676;52.630;4.896;2024-03-06T01:21:29;100361.56;;;7.03;85.14
46942;BME280;32676;52.630;4.896;2024-03-06T01:23:57;100387.16;;;7.24;85.24
46942;BME280;32676;52.630;4.896;2024-03-06T01:26:24;100431.84;;;7.48;85.32
46942;BME280;32676;52.630;4.896;2024-03-06T01:28:50;100364.22;;;7.01;85.27
46942;BME280;32676;52.630;4.896;2024-03-06T01:31:17;100450.78;;;7.56;85.58
46942;BME280;32676;52.630;4.896;2024-03-06T01:33:43;100422.47;;;7.39;85.31
46942;BME280;32676;52.630;4.896;2024-03-06T01:36:11;100446.50;;;7.54;85.33
46942;BME280;32676;52.630;4.896;2024-03-06T01:38:39;100437.81;;;7.53;85.46
46942;BME280;32676;52.630;4.896;2024-03-06T01:41:06;100356.41;;;7.00;85.45
46942;BME280;32676;52.630;4.896;2024-03-06T01:43:37;100387.22;;;7.21;85.58
46942;BME280;32676;52.630;4.896;2024-03-06T01:46:04;100440.44;;;7.53;85.61
46942;BME280;32676;52.630;4.896;2024-03-06T01:48:31;100454.31;;;7.55;85.66
46942;BME280;32676;52.630;4.896;2024-03-06T01:51:00;100390.88;;;7.14;85.66
46942;BME280;32676;52.630;4.896;2024-03-06T01:53:32;100423.50;;;7.34;85.50
46942;BME280;32676;52.630;4.896;2024-03-06T01:55:59;100435.53;;;7.41;85.48
46942;BME280;32676;52.630;4.896;2024-03-06T01:58:27;100457.13;;;7.47;85.48
46942;BME280;32676;52.630;4.896;2024-03-06T02:00:54;100402.66;;;7.30;85.39
46942;BME280;32676;52.630;4.896;2024-03-06T02:03:21;100392.53;;;7.18;85.51
46942;BME280;32676;52.630;4.896;2024-03-06T02:05:48;100443.06;;;7.53;85.60
46942;BME280;32676;52.630;4.896;2024-03-06T02:08:15;100447.41;;;7.53;85.61
46942;BME280;32676;52.630;4.896;2024-03-06T02:10:44;100445.66;;;7.53;85.63
46942;BME280;32676;52.630;4.896;2024-03-06T02:13:11;100425.16;;;7.36;85.51
46942;BME280;32676;52.630;4.896;2024-03-06T02:15:38;100348.72;;;6.95;85.62
46942;BME280;32676;52.630;4.896;2024-03-06T02:18:05;100284.34;;;6.57;85.43
46942;BME280;32676;52.630;4.896;2024-03-06T02:20:33;100359.00;;;7.01;85.55
46942;BME280;32676;52.630;4.896;2024-03-06T02:23:00;100292.16;;;6.58;85.61
46942;BME280;32676;52.630;4.896;2024-03-06T02:25:28;100451.03;;;7.47;85.84
46942;BME280;32676;52.630;4.896;2024-03-06T02:27:54;100421.78;;;7.33;85.91
46942;BME280;32676;52.630;4.896;2024-03-06T02:30:21;100464.78;;;7.55;85.99
46942;BME280;32676;52.630;4.896;2024-03-06T02:32:48;100387.63;;;7.06;85.95
46942;BME280;32676;52.630;4.896;2024-03-06T02:35:14;100463.06;;;7.54;85.95
46942;BME280;32676;52.630;4.896;2024-03-06T02:37:42;100368.66;;;6.98;85.99
46942;BME280;32676;52.630;4.896;2024-03-06T02:40:10;100464.84;;;7.52;85.79
46942;BME280;32676;52.630;4.896;2024-03-06T02:42:37;100466.59;;;7.53;86.12
46942;BME280;32676;52.630;4.896;2024-03-06T02:45:05;100367.09;;;6.90;85.83
46942;BME280;32676;52.630;4.896;2024-03-06T02:47:33;100459.63;;;7.52;86.01
46942;BME280;32676;52.630;4.896;2024-03-06T02:50:00;100406.50;;;7.17;85.83
46942;BME280;32676;52.630;4.896;2024-03-06T02:52:26;100446.03;;;7.38;85.97
46942;BME280;32676;52.630;4.896;2024-03-06T02:54:55;100421.13;;;7.24;85.75
46942;BME280;32676;52.630;4.896;2024-03-06T02:57:22;100418.75;;;7.15;85.67
46942;BME280;32676;52.630;4.896;2024-03-06T02:59:49;100385.22;;;6.97;85.70
46942;BME280;32676;52.630;4.896;2024-03-06T03:02:15;100476.94;;;7.56;85.62
46942;BME280;32676;52.630;4.896;2024-03-06T03:04:42;100421.94;;;7.26;85.46
46942;BME280;32676;52.630;4.896;2024-03-06T03:07:09;100430.66;;;7.25;85.33
46942;BME280;32676;52.630;4.896;2024-03-06T03:09:36;100379.09;;;6.98;85.28
46942;BME280;32676;52.630;4.896;2024-03-06T03:12:05;100477.03;;;7.53;85.29
46942;BME280;32676;52.630;4.896;2024-03-06T03:14:31;100401.38;;;7.13;85.18
46942;BME280;32676;52.630;4.896;2024-03-06T03:16:59;100380.84;;;6.99;85.13
46942;BME280;32676;52.630;4.896;2024-03-06T03:19:26;100393.69;;;7.06;85.13
46942;BME280;32676;52.630;4.896;2024-03-06T03:21:53;100480.50;;;7.54;84.80
46942;BME280;32676;52.630;4.896;2024-03-06T03:24:19;100365.25;;;6.94;84.95
46942;BME280;32676;52.630;4.896;2024-03-06T03:26:47;100445.09;;;7.40;84.97
46942;BME280;32676;52.630;4.896;2024-03-06T03:29:15;100459.69;;;7.49;85.01
46942;BME280;32676;52.630;4.896;2024-03-06T03:31:41;100393.63;;;7.09;85.04
46942;BME280;32676;52.630;4.896;2024-03-06T03:34:08;100395.50;;;7.04;84.96
46942;BME280;32676;52.630;4.896;2024-03-06T03:36:39;100423.75;;;7.24;84.88
46942;BME280;32676;52.630;4.896;2024-03-06T03:39:06;100447.84;;;7.36;84.80
46942;BME280;32676;52.630;4.896;2024-03-06T03:41:42;100436.56;;;7.34;84.82
46942;BME280;32676;52.630;4.896;2024-03-06T03:44:08;100468.44;;;7.48;84.78
46942;BME280;32676;52.630;4.896;2024-03-06T03:46:36;100392.75;;;7.09;84.80
46942;BME280;32676;52.630;4.896;2024-03-06T03:49:03;100370.69;;;6.86;84.60
46942;BME280;32676;52.630;4.896;2024-03-06T03:51:29;100360.25;;;6.86;84.58
46942;BME280;32676;52.630;4.896;2024-03-06T03:53:56;100347.25;;;6.83;84.58
46942;BME280;32676;52.630;4.896;2024-03-06T03:56:23;100349.84;;;6.83;84.53
46942;BME280;32676;52.630;4.896;2024-03-06T03:58:49;100398.50;;;7.23;84.58
46942;BME280;32676;52.630;4.896;2024-03-06T04:01:16;100279.06;;;6.60;84.49
46942;BME280;32676;52.630;4.896;2024-03-06T04:03:44;100255.88;;;6.47;84.57
46942;BME280;32676;52.630;4.896;2024-03-06T04:06:10;100322.81;;;6.86;84.60
46942;BME280;32676;52.630;4.896;2024-03-06T04:08:37;100356.91;;;7.14;84.69
46942;BME280;32676;52.630;4.896;2024-03-06T04:11:03;100350.03;;;7.11;84.55
46942;BME280;32676;52.630;4.896;2024-03-06T04:13:30;100323.13;;;7.08;84.58
46942;BME280;32676;52.630;4.896;2024-03-06T04:16:01;100317.91;;;7.08;84.66
46942;BME280;32676;52.630;4.896;2024-03-06T04:18:27;100314.56;;;7.03;84.53
46942;BME280;32676;52.630;4.896;2024-03-06T04:20:55;100317.81;;;7.11;84.67
46942;BME280;32676;52.630;4.896;2024-03-06T04:23:22;100281.66;;;6.96;84.62
46942;BME280;32676;52.630;4.896;2024-03-06T04:25:49;100292.72;;;7.04;84.57
46942;BME280;32676;52.630;4.896;2024-03-06T04:28:15;100262.75;;;6.86;84.41
46942;BME280;32676;52.630;4.896;2024-03-06T04:30:42;100188.09;;;6.46;84.63
46942;BME280;32676;52.630;4.896;2024-03-06T04:33:08;100191.34;;;6.54;84.58
46942;BME280;32676;52.630;4.896;2024-03-06T04:35:39;100181.84;;;6.51;84.49
46942;BME280;32676;52.630;4.896;2024-03-06T04:38:07;100192.13;;;6.58;84.51
46942;BME280;32676;52.630;4.896;2024-03-06T04:40:34;100222.88;;;6.79;84.37
46942;BME280;32676;52.630;4.896;2024-03-06T04:43:01;100212.44;;;6.79;84.45
46942;BME280;32676;52.630;4.896;2024-03-06T04:45:28;100228.81;;;6.86;84.40
46942;BME280;32676;52.630;4.896;2024-03-06T04:47:54;100187.47;;;6.69;84.34
46942;BME280;32676;52.630;4.896;2024-03-06T04:50:21;100124.75;;;6.39;84.31
46942;BME280;32676;52.630;4.896;2024-03-06T04:52:48;100112.69;;;6.35;84.42
46942;BME280;32676;52.630;4.896;2024-03-06T04:55:16;100169.13;;;6.72;84.40
46942;BME280;32676;52.630;4.896;2024-03-06T04:57:47;100129.78;;;6.45;84.29
46942;BME280;32676;52.630;4.896;2024-03-06T05:00:14;100137.13;;;6.64;84.29
46942;BME280;32676;52.630;4.896;2024-03-06T05:02:43;100021.56;;;5.93;84.34
46942;BME280;32676;52.630;4.896;2024-03-06T05:05:10;100002.63;;;5.88;84.46
46942;BME280;32676;52.630;4.896;2024-03-06T05:07:36;100033.28;;;6.12;84.49
46942;BME280;32676;52.630;4.896;2024-03-06T05:10:04;100057.16;;;6.30;84.42
46942;BME280;32676;52.630;4.896;2024-03-06T05:12:34;99909.88;;;5.46;84.69
46942;BME280;32676;52.630;4.896;2024-03-06T05:15:01;100055.03;;;6.44;84.48
46942;BME280;32676;52.630;4.896;2024-03-06T05:17:27;99982.38;;;5.98;84.44
46942;BME280;32676;52.630;4.896;2024-03-06T05:19:54;99943.72;;;5.81;84.28
46942;BME280;32676;52.630;4.896;2024-03-06T05:22:21;99889.00;;;5.48;84.38
46942;BME280;32676;52.630;4.896;2024-03-06T05:24:48;99931.41;;;5.86;84.13
46942;BME280;32676;52.630;4.896;2024-03-06T05:27:15;99911.66;;;5.77;84.42
46942;BME280;32676;52.630;4.896;2024-03-06T05:29:44;99823.63;;;5.24;84.26
46942;BME280;32676;52.630;4.896;2024-03-06T05:32:11;99936.34;;;5.96;84.34
46942;BME280;32676;52.630;4.896;2024-03-06T05:34:37;99965.44;;;6.12;84.45
46942;BME280;32676;52.630;4.896;2024-03-06T05:37:04;99965.63;;;6.06;84.54
46942;BME280;32676;52.630;4.896;2024-03-06T05:39:31;99956.19;;;6.02;84.59
46942;BME280;32676;52.630;4.896;2024-03-06T05:42:00;99926.34;;;5.80;84.75
46942;BME280;32676;52.630;4.896;2024-03-06T05:44:28;99880.00;;;5.58;84.74
46942;BME280;32676;52.630;4.896;2024-03-06T05:46:56;99897.88;;;5.72;85.02
46942;BME280;32676;52.630;4.896;2024-03-06T05:49:23;99893.78;;;5.63;85.02
46942;BME280;32676;52.630;4.896;2024-03-06T05:51:50;99989.59;;;6.21;85.07
46942;BME280;32676;52.630;4.896;2024-03-06T05:54:17;99914.03;;;5.85;84.96
46942;BME280;32676;52.630;4.896;2024-03-06T05:56:44;99975.72;;;6.19;85.22
46942;BME280;32676;52.630;4.896;2024-03-06T05:59:11;99857.47;;;5.57;85.03
46942;BME280;32676;52.630;4.896;2024-03-06T06:01:38;99892.38;;;5.83;85.15
46942;BME280;32676;52.630;4.896;2024-03-06T06:04:06;99856.56;;;5.58;85.25
46942;BME280;32676;52.630;4.896;2024-03-06T06:06:34;99939.47;;;6.09;85.16
46942;BME280;32676;52.630;4.896;2024-03-06T06:09:01;99858.13;;;5.64;85.04
46942;BME280;32676;52.630;4.896;2024-03-06T06:11:30;99901.91;;;5.84;85.09
46942;BME280;32676;52.630;4.896;2024-03-06T06:13:56;99939.38;;;6.12;85.25
46942;BME280;32676;52.630;4.896;2024-03-06T06:16:23;99942.09;;;6.09;85.19
46942;BME280;32676;52.630;4.896;2024-03-06T06:18:50;99924.06;;;6.00;85.23
46942;BME280;32676;52.630;4.896;2024-03-06T06:21:19;99937.75;;;6.08;84.92
46942;BME280;32676;52.630;4.896;2024-03-06T06:23:45;99877.81;;;5.75;84.92
46942;BME280;32676;52.630;4.896;2024-03-06T06:26:13;99902.53;;;5.92;84.89
46942;BME280;32676;52.630;4.896;2024-03-06T06:28:40;99860.88;;;5.59;84.79
46942;BME280;32676;52.630;4.896;2024-03-06T06:31:07;99942.97;;;6.08;84.90
46942;BME280;32676;52.630;4.896;2024-03-06T06:33:34;99937.94;;;6.02;84.91
46942;BME280;32676;52.630;4.896;2024-03-06T06:36:00;99940.31;;;6.10;85.16
46942;BME280;32676;52.630;4.896;2024-03-06T06:38:28;99921.97;;;5.80;85.04
46942;BME280;32676;52.630;4.896;2024-03-06T06:40:55;99908.28;;;5.73;85.19
46942;BME280;32676;52.630;4.896;2024-03-06T06:43:22;99980.22;;;6.13;85.33
46942;BME280;32676;52.630;4.896;2024-03-06T06:45:49;99927.28;;;5.77;85.43
46942;BME280;32676;52.630;4.896;2024-03-06T06:48:16;100006.94;;;6.22;85.61
46942;BME280;32676;52.630;4.896;2024-03-06T06:50:43;99975.44;;;5.96;85.42
46942;BME280;32676;52.630;4.896;2024-03-06T06:53:13;100034.56;;;6.29;85.51
46942;BME280;32676;52.630;4.896;2024-03-06T06:55:41;100054.41;;;6.34;85.77
46942;BME280;32676;52.630;4.896;2024-03-06T06:58:08;99924.56;;;5.49;85.69
46942;BME280;32676;52.630;4.896;2024-03-06T07:00:35;99973.50;;;5.70;85.93
46942;BME280;32676;52.630;4.896;2024-03-06T07:03:03;100126.97;;;6.53;86.09
46942;BME280;32676;52.630;4.896;2024-03-06T07:05:29;100152.06;;;6.59;86.27
46942;BME280;32676;52.630;4.896;2024-03-06T07:07:56;100105.25;;;6.20;86.18
46942;BME280;32676;52.630;4.896;2024-03-06T07:10:22;100158.50;;;6.45;86.51
46942;BME280;32676;52.630;4.896;2024-03-06T07:12:51;100188.94;;;6.46;86.84
46942;BME280;32676;52.630;4.896;2024-03-06T07:15:18;100250.78;;;6.77;86.88
46942;BME280;32676;52.630;4.896;2024-03-06T07:17:43;100280.97;;;6.87;86.98
46942;BME280;32676;52.630;4.896;2024-03-06T07:20:10;100305.19;;;6.94;86.94
46942;BME280;32676;52.630;4.896;2024-03-06T07:22:37;100280.47;;;6.73;87.00
46942;BME280;32676;52.630;4.896;2024-03-06T07:25:04;100361.50;;;7.06;87.41
46942;BME280;32676;52.630;4.896;2024-03-06T07:27:31;100393.72;;;7.05;87.12
46942;BME280;32676;52.630;4.896;2024-03-06T07:29:59;100332.69;;;6.73;86.81
46942;BME280;32676;52.630;4.896;2024-03-06T07:32:26;100412.00;;;7.06;87.14
46942;BME280;32676;52.630;4.896;2024-03-06T07:34:52;100450.00;;;7.18;86.95
46942;BME280;32676;52.630;4.896;2024-03-06T07:37:19;100503.47;;;7.41;87.19
46942;BME280;32676;52.630;4.896;2024-03-06T07:39:46;100539.03;;;7.48;87.01
46942;BME280;32676;52.630;4.896;2024-03-06T07:42:13;100528.19;;;7.27;87.11
46942;BME280;32676;52.630;4.896;2024-03-06T07:44:40;100599.72;;;7.62;87.00
46942;BME280;32676;52.630;4.896;2024-03-06T07:47:08;100568.09;;;7.36;86.85
46942;BME280;32676;52.630;4.896;2024-03-06T07:49:35;100577.00;;;7.25;86.92
46942;BME280;32676;52.630;4.896;2024-03-06T07:52:04;100656.31;;;7.63;86.75
46942;BME280;32676;52.630;4.896;2024-03-06T07:54:31;100636.59;;;7.50;86.68
46942;BME280;32676;52.630;4.896;2024-03-06T07:56:58;100716.75;;;7.90;86.61
46942;BME280;32676;52.630;4.896;2024-03-06T07:59:24;100711.63;;;7.84;86.54
46942;BME280;32676;52.630;4.896;2024-03-06T08:01:51;100612.09;;;7.15;86.32
46942;BME280;32676;52.630;4.896;2024-03-06T08:04:19;100603.50;;;7.10;86.19
46942;BME280;32676;52.630;4.896;2024-03-06T08:06:46;100717.84;;;7.80;86.22
46942;BME280;32676;52.630;4.896;2024-03-06T08:09:13;100747.28;;;7.90;86.02
46942;BME280;32676;52.630;4.896;2024-03-06T08:11:41;100765.34;;;8.00;85.90
46942;BME280;32676;52.630;4.896;2024-03-06T08:14:08;100639.94;;;7.16;85.61
46942;BME280;32676;52.630;4.896;2024-03-06T08:16:35;100724.25;;;7.66;85.68
46942;BME280;32676;52.630;4.896;2024-03-06T08:19:03;100682.94;;;7.42;85.52
46942;BME280;32676;52.630;4.896;2024-03-06T08:21:30;100724.38;;;7.60;85.27
46942;BME280;32676;52.630;4.896;2024-03-06T08:23:57;100702.16;;;7.41;85.24
46942;BME280;32676;52.630;4.896;2024-03-06T08:26:24;100683.22;;;7.29;85.06
46942;BME280;32676;52.630;4.896;2024-03-06T08:28:50;100803.84;;;7.95;85.06
46942;BME280;32676;52.630;4.896;2024-03-06T08:31:18;100862.66;;;8.18;84.87
46942;BME280;32676;52.630;4.896;2024-03-06T08:33:46;100805.66;;;7.93;84.62
46942;BME280;32676;52.630;4.896;2024-03-06T08:36:13;100847.22;;;8.05;84.44
46942;BME280;32676;52.630;4.896;2024-03-06T08:38:41;100823.97;;;7.93;84.62
46942;BME280;32676;52.630;4.896;2024-03-06T08:41:08;100840.50;;;7.95;84.42
46942;BME280;32676;52.630;4.896;2024-03-06T08:43:35;100922.56;;;8.33;84.28
46942;BME280;32676;52.630;4.896;2024-03-06T08:46:01;100933.78;;;8.38;84.01
46942;BME280;32676;52.630;4.896;2024-03-06T08:48:28;100965.13;;;8.41;83.86
46942;BME280;32676;52.630;4.896;2024-03-06T08:50:55;100920.38;;;8.12;83.83
46942;BME280;32676;52.630;4.896;2024-03-06T08:53:21;100991.16;;;8.51;83.84
46942;BME280;32676;52.630;4.896;2024-03-06T08:55:50;100969.03;;;8.22;83.64
46942;BME280;32676;52.630;4.896;2024-03-06T08:58:17;101003.56;;;8.42;83.77
46942;BME280;32676;52.630;4.896;2024-03-06T09:00:45;101024.38;;;8.49;83.42
46942;BME280;32676;52.630;4.896;2024-03-06T09:03:13;101063.41;;;8.62;83.54
46942;BME280;32676;52.630;4.896;2024-03-06T09:05:41;101024.53;;;8.39;83.38
46942;BME280;32676;52.630;4.896;2024-03-06T09:08:09;101107.63;;;8.76;83.30
46942;BME280;32676;52.630;4.896;2024-03-06T09:10:37;101088.84;;;8.56;83.23
46942;BME280;32676;52.630;4.896;2024-03-06T09:13:05;101114.78;;;8.68;82.92
46942;BME280;32676;52.630;4.896;2024-03-06T09:15:32;101106.38;;;8.52;82.69
46942;BME280;32676;52.630;4.896;2024-03-06T09:17:59;101157.50;;;8.73;82.67
46942;BME280;32676;52.630;4.896;2024-03-06T09:20:26;101134.41;;;8.47;82.78
46942;BME280;32676;52.630;4.896;2024-03-06T09:22:52;101130.97;;;8.43;82.74
46942;BME280;32676;52.630;4.896;2024-03-06T09:25:22;101262.47;;;9.09;82.64
46942;BME280;32676;52.630;4.896;2024-03-06T09:27:49;101311.09;;;9.26;82.40
46942;BME280;32676;52.630;4.896;2024-03-06T09:30:17;101320.13;;;9.12;82.87
46942;BME280;32676;52.630;4.896;2024-03-06T09:32:44;101342.75;;;9.16;82.72
46942;BME280;32676;52.630;4.896;2024-03-06T09:35:11;101394.72;;;9.44;82.39
46942;BME280;32676;52.630;4.896;2024-03-06T09:37:39;101433.00;;;9.54;82.26
46942;BME280;32676;52.630;4.896;2024-03-06T09:40:07;101467.00;;;9.60;82.05
46942;BME280;32676;52.630;4.896;2024-03-06T09:42:35;101409.22;;;9.15;81.85
46942;BME280;32676;52.630;4.896;2024-03-06T09:45:02;101464.75;;;9.39;81.81
46942;BME280;32676;52.630;4.896;2024-03-06T09:47:32;101531.66;;;9.65;81.52
46942;BME280;32676;52.630;4.896;2024-03-06T09:50:00;101542.78;;;9.79;81.05
46942;BME280;32676;52.630;4.896;2024-03-06T09:52:31;101544.59;;;9.75;80.82
46942;BME280;32676;52.630;4.896;2024-03-06T09:54:59;101477.03;;;9.37;80.34
46942;BME280;32676;52.630;4.896;2024-03-06T09:57:27;101551.53;;;9.78;80.65
46942;BME280;32676;52.630;4.896;2024-03-06T09:59:54;101482.28;;;9.37;80.48
46942;BME280;32676;52.630;4.896;2024-03-06T10:02:30;101471.91;;;9.28;80.53
46942;BME280;32676;52.630;4.896;2024-03-06T10:04:57;101556.72;;;9.81;80.63
46942;BME280;32676;52.630;4.896;2024-03-06T10:07:24;101456.28;;;9.21;80.50
46942;BME280;32676;52.630;4.896;2024-03-06T10:09:52;101514.34;;;9.53;80.53
46942;BME280;32676;52.630;4.896;2024-03-06T10:12:19;101553.47;;;9.67;80.59
46942;BME280;32676;52.630;4.896;2024-03-06T10:14:50;101549.16;;;9.64;80.42
46942;BME280;32676;52.630;4.896;2024-03-06T10:17:20;101578.63;;;9.80;80.31
46942;BME280;32676;52.630;4.896;2024-03-06T10:19:50;101548.38;;;9.59;80.42
46942;BME280;32676;52.630;4.896;2024-03-06T10:22:17;101563.00;;;9.72;80.38
46942;BME280;32676;52.630;4.896;2024-03-06T10:24:45;101553.44;;;9.70;80.41
46942;BME280;32676;52.630;4.896;2024-03-06T10:27:15;101544.69;;;9.68;80.39
46942;BME280;32676;52.630;4.896;2024-03-06T10:29:42;101553.28;;;9.79;80.21
46942;BME280;32676;52.630;4.896;2024-03-06T10:32:09;101507.34;;;9.53;80.05
46942;BME280;32676;52.630;4.896;2024-03-06T10:34:37;101388.59;;;8.94;80.16
46942;BME280;32676;52.630;4.896;2024-03-06T10:37:07;101513.22;;;9.68;80.17
46942;BME280;32676;52.630;4.896;2024-03-06T10:39:36;101445.75;;;9.25;79.79
46942;BME280;32676;52.630;4.896;2024-03-06T10:42:07;101494.50;;;9.38;80.11
46942;BME280;32676;52.630;4.896;2024-03-06T10:44:35;101496.31;;;9.33;79.90
46942;BME280;32676;52.630;4.896;2024-03-06T10:47:06;101513.94;;;9.25;80.00
46942;BME280;32676;52.630;4.896;2024-03-06T10:49:36;101680.59;;;10.05;80.24
46942;BME280;32676;52.630;4.896;2024-03-06T10:52:07;101682.31;;;10.07;80.25
46942;BME280;32676;52.630;4.896;2024-03-06T10:54:34;101554.97;;;9.27;80.00
46942;BME280;32676;52.630;4.896;2024-03-06T10:57:04;101573.09;;;9.44;79.68
46942;BME280;32676;52.630;4.896;2024-03-06T10:59:31;101629.25;;;9.88;79.65
46942;BME280;32676;52.630;4.896;2024-03-06T11:01:59;101504.25;;;9.30;79.24
46942;BME280;32676;52.630;4.896;2024-03-06T11:04:27;101494.63;;;9.29;79.12
46942;BME280;32676;52.630;4.896;2024-03-06T11:06:55;101491.81;;;9.43;79.33
46942;BME280;32676;52.630;4.896;2024-03-06T11:09:23;101438.13;;;9.09;79.44
46942;BME280;32676;52.630;4.896;2024-03-06T11:11:51;101515.28;;;9.50;79.74
46942;BME280;32676;52.630;4.896;2024-03-06T11:14:18;101531.25;;;9.35;79.93
46942;BME280;32676;52.630;4.896;2024-03-06T11:16:58;101678.97;;;9.97;80.19
46942;BME280;32676;52.630;4.896;2024-03-06T11:19:26;101760.06;;;10.16;80.19
46942;BME280;32676;52.630;4.896;2024-03-06T11:21:54;101755.59;;;10.24;80.14
46942;BME280;32676;52.630;4.896;2024-03-06T11:24:23;101652.19;;;9.75;80.01
46942;BME280;32676;52.630;4.896;2024-03-06T11:26:55;101560.09;;;9.35;79.22
46942;BME280;32676;52.630;4.896;2024-03-06T11:29:23;101511.16;;;9.34;78.87
46942;BME280;32676;52.630;4.896;2024-03-06T11:32:00;101556.97;;;9.66;78.85
46942;BME280;32676;52.630;4.896;2024-03-06T11:34:29;101542.47;;;9.46;79.06
46942;BME280;32676;52.630;4.896;2024-03-06T11:36:57;101585.00;;;9.64;79.31
46942;BME280;32676;52.630;4.896;2024-03-06T11:39:28;101614.56;;;9.75;79.42
46942;BME280;32676;52.630;4.896;2024-03-06T11:41:55;101604.19;;;9.69;79.63
46942;BME280;32676;52.630;4.896;2024-03-06T11:44:22;101671.00;;;10.02;79.54
46942;BME280;32676;52.630;4.896;2024-03-06T11:46:57;101639.88;;;9.79;79.57
46942;BME280;32676;52.630;4.896;2024-03-06T11:49:25;101731.19;;;10.16;79.61
46942;BME280;32676;52.630;4.896;2024-03-06T11:51:56;101656.78;;;9.63;79.70
46942;BME280;32676;52.630;4.896;2024-03-06T11:54:23;101780.25;;;10.14;79.56
46942;BME280;32676;52.630;4.896;2024-03-06T11:56:54;101691.59;;;9.74;79.54
46942;BME280;32676;52.630;4.896;2024-03-06T11:59:22;101726.41;;;9.85;79.44
46942;BME280;32676;52.630;4.896;2024-03-06T12:01:50;101808.13;;;10.24;79.39
46942;BME280;32676;52.630;4.896;2024-03-06T12:04:16;101855.09;;;10.46;79.57
46942;BME280;32676;52.630;4.896;2024-03-06T12:06:43;101855.19;;;10.40;79.17
46942;BME280;32676;52.630;4.896;2024-03-06T12:09:09;101908.44;;;10.52;78.90
46942;BME280;32676;52.630;4.896;2024-03-06T12:11:37;101945.91;;;10.65;79.05
46942;BME280;32676;52.630;4.896;2024-03-06T12:14:05;101984.38;;;10.72;78.92
46942;BME280;32676;52.630;4.896;2024-03-06T12:16:33;101960.00;;;10.61;78.78
46942;BME280;32676;52.630;4.896;2024-03-06T12:18:59;102007.03;;;10.83;78.21
46942;BME280;32676;52.630;4.896;2024-03-06T12:21:28;102069.94;;;10.95;77.96
46942;BME280;32676;52.630;4.896;2024-03-06T12:24:05;102092.72;;;10.98;78.30
46942;BME280;32676;52.630;4.896;2024-03-06T12:26:32;102089.28;;;10.91;77.95
46942;BME280;32676;52.630;4.896;2024-03-06T12:29:07;102096.28;;;10.93;77.26
46942;BME280;32676;52.630;4.896;2024-03-06T12:31:35;102056.22;;;10.73;76.99
46942;BME280;32676;52.630;4.896;2024-03-06T12:34:02;102084.09;;;10.88;77.18
46942;BME280;32676;52.630;4.896;2024-03-06T12:36:30;102094.53;;;10.91;76.80
46942;BME280;32676;52.630;4.896;2024-03-06T12:38:59;102126.78;;;11.05;77.08
46942;BME280;32676;52.630;4.896;2024-03-06T12:41:26;102139.00;;;11.11;76.47
46942;BME280;32676;52.630;4.896;2024-03-06T12:43:55;102139.09;;;11.03;76.60
46942;BME280;32676;52.630;4.896;2024-03-06T12:46:24;102136.38;;;11.09;76.06
46942;BME280;32676;52.630;4.896;2024-03-06T12:48:52;102101.56;;;10.92;76.10
46942;BME280;32676;52.630;4.896;2024-03-06T12:51:19;101969.25;;;10.20;75.71
46942;BME280;32676;52.630;4.896;2024-03-06T12:53:45;102111.91;;;11.04;76.06
46942;BME280;32676;52.630;4.896;2024-03-06T12:56:13;102110.19;;;11.00;76.06
46942;BME280;32676;52.630;4.896;2024-03-06T12:58:39;102044.94;;;10.66;76.47
46942;BME280;32676;52.630;4.896;2024-03-06T13:01:06;102080.78;;;10.73;76.37